Time;durP1;ratioP1;P1;durP2;ratioP2;P2;SDS_P1;SDS_P2;PMS_P1;PMS_P2;Temp;Humidity;BMP_temperature;BMP_pressure;BME280_temperature;BME280_humidity;BME280_pressure;Samples;Min_cycle;Max_cycle;Signal;HPM_P1;HPM_P2
2022/09/05 00:00:51;;;;;;;2.15;1.45;;;;;;;18.87;78.08;101645.41;20701994;28;20057;-74
2022/09/05 00:11:04;;;;;;;1.75;1.63;;;;;;;19.15;78.20;101693.63;20705693;28;20096;-74
2022/09/05 00:21:38;;;;;;;1.60;1.50;;;;;;;19.12;78.05;101690.19;20719383;28;20084;-74
2022/09/05 00:32:07;;;;;;;2.10;1.60;;;;;;;19.14;78.22;101692.78;20717594;28;20050;-73
2022/09/05 00:42:12;;;;;;;1.50;1.40;;;;;;;19.05;78.24;101677.34;20717942;28;20061;-74
2022/09/05 00:52:21;;;;;;;2.25;1.60;;;;;;;19.06;78.23;101676.34;20717611;28;20069;-74
2022/09/05 01:02:45;;;;;;;1.65;1.55;;;;;;;19.11;78.23;101683.06;20707942;28;20046;-73
2022/09/05 01:13:15;;;;;;;1.50;1.40;;;;;;;19.11;78.26;101685.78;20774469;28;20420;-73
2022/09/05 01:23:40;;;;;;;1.60;1.50;;;;;;;19.10;78.44;101686.75;20724769;28;20046;-74
2022/09/05 01:33:54;;;;;;;1.97;1.60;;;;;;;19.10;78.31;101685.91;20736030;28;20084;-78
2022/09/05 01:44:14;;;;;;;2.03;1.58;;;;;;;19.08;78.31;101683.31;20706498;28;20107;-73
2022/09/05 01:54:31;;;;;;;1.92;1.60;;;;;;;19.08;78.43;101675.22;20706233;28;20082;-73
2022/09/05 02:04:42;;;;;;;2.08;1.60;;;;;;;19.08;78.33;101674.38;20786962;28;20057;-74
2022/09/05 02:14:44;;;;;;;1.90;1.70;;;;;;;19.08;78.67;101674.38;20795468;28;20403;-74
2022/09/05 02:25:01;;;;;;;1.92;1.75;;;;;;;19.04;78.40;101670.22;20780793;28;20052;-73
2022/09/05 02:35:24;;;;;;;1.73;1.63;;;;;;;19.06;78.40;101684.44;20765164;28;20054;-73
2022/09/05 02:45:50;;;;;;;1.88;1.70;;;;;;;19.06;78.48;101695.25;20712197;28;20921;-73
2022/09/05 02:56:03;;;;;;;1.60;1.50;;;;;;;19.05;78.58;101682.75;20698551;28;20081;-77
2022/09/05 03:06:33;;;;;;;2.22;1.80;;;;;;;19.06;78.61;101679.06;20698860;28;20064;-75
2022/09/05 03:17:03;;;;;;;2.22;1.88;;;;;;;19.05;78.70;101669.25;20689491;28;20160;-73
2022/09/05 03:27:17;;;;;;;1.70;1.50;;;;;;;19.04;78.42;101681.03;20693880;28;20076;-74
2022/09/05 03:37:44;;;;;;;2.10;1.90;;;;;;;19.04;78.44;101689.13;20715623;28;20046;-74
2022/09/05 03:47:45;;;;;;;1.80;1.70;;;;;;;19.02;78.56;101689.22;20775504;28;20100;-73
2022/09/05 03:58:02;;;;;;;2.22;1.95;;;;;;;19.03;78.74;101700.91;20702332;28;20042;-74
2022/09/05 04:08:35;;;;;;;1.98;1.80;;;;;;;19.02;78.60;101709.97;20758188;28;20042;-74
2022/09/05 04:18:48;;;;;;;2.20;2.00;;;;;;;19.01;78.59;101709.09;20668383;28;20074;-74
2022/09/05 04:29:26;;;;;;;2.47;2.03;;;;;;;19.00;78.83;101707.38;20685895;28;20049;-74
2022/09/05 04:39:28;;;;;;;1.95;1.67;;;;;;;19.01;79.08;101710.97;20723752;28;20088;-74
2022/09/05 04:49:33;;;;;;;2.58;2.17;;;;;;;19.02;79.52;101709.97;20721484;28;20060;-74
2022/09/05 04:59:43;;;;;;;4.10;2.43;;;;;;;18.87;79.67;101691.28;20741682;28;20518;-74
2022/09/05 05:10:07;;;;;;;2.40;2.20;;;;;;;19.09;80.74;101730.09;20757764;28;20053;-74
2022/09/05 05:20:40;;;;;;;3.75;2.67;;;;;;;19.11;81.21;101738.91;20684859;28;20056;-74
2022/09/05 05:30:44;;;;;;;2.70;2.17;;;;;;;19.11;81.16;101747.84;20709202;28;20268;-73
2022/09/05 05:41:11;;;;;;;2.72;2.15;;;;;;;19.12;80.81;101748.72;20715813;28;20054;-74
2022/09/05 05:51:19;;;;;;;3.25;2.55;;;;;;;19.12;80.39;101743.31;20697199;28;20077;-74
2022/09/05 06:02:03;;;;;;;6.03;2.63;;;;;;;19.13;79.84;101745.03;20671153;28;20058;-74
2022/09/05 06:12:38;;;;;;;3.95;2.40;;;;;;;19.13;79.63;101755.84;20724217;28;20053;-73
2022/09/05 06:23:19;;;;;;;2.73;2.33;;;;;;;19.14;79.58;101752.16;20700964;28;20431;-73
2022/09/05 06:33:51;;;;;;;5.47;2.50;;;;;;;19.15;79.66;101747.59;20740650;28;20052;-73
2022/09/05 06:44:02;;;;;;;2.22;2.00;;;;;;;19.17;79.67;101745.63;20691412;28;20056;-73
2022/09/05 06:54:25;;;;;;;4.25;2.75;;;;;;;19.17;79.50;101738.41;20743131;28;20417;-73
2022/09/05 07:04:30;;;;;;;2.72;2.45;;;;;;;19.18;79.40;101745.53;20668378;28;20053;-73
2022/09/05 07:15:15;;;;;;;3.00;2.55;;;;;;;19.20;79.57;101751.66;20672731;28;20105;-73
2022/09/05 07:25:20;;;;;;;2.85;2.30;;;;;;;18.96;79.59;101717.53;20676763;28;20070;-73
2022/09/05 07:35:30;;;;;;;4.03;2.60;;;;;;;19.22;79.66;101767.72;20695834;28;20569;-73
2022/09/05 07:45:46;;;;;;;3.50;2.60;;;;;;;19.07;79.58;101737.44;20697040;28;20052;-73
2022/09/05 07:55:58;;;;;;;2.42;2.22;;;;;;;18.99;79.37;101730.78;20683831;28;20060;-73
2022/09/05 08:06:23;;;;;;;3.05;2.40;;;;;;;19.12;79.40;101743.31;20688908;28;20045;-74
2022/09/05 08:16:45;;;;;;;;;;;;;;;19.34;79.55;101771.25;20754148;28;20049;-73
2022/09/05 08:26:48;;;;;;;2.58;2.33;;;;;;;19.39;79.62;101763.63;20703811;28;20456;-74
2022/09/05 08:36:51;;;;;;;2.53;2.30;;;;;;;19.44;79.72;101763.28;20712868;28;20045;-74
2022/09/05 08:47:34;;;;;;;2.55;2.17;;;;;;;19.06;79.81;101693.38;20712482;28;20049;-73
2022/09/05 08:58:24;;;;;;;2.45;2.25;;;;;;;19.56;79.78;101741.53;20727920;28;20069;-73
2022/09/05 09:08:37;;;;;;;2.78;2.22;;;;;;;19.60;79.75;101742.13;20711922;28;20065;-73
2022/09/05 09:19:00;;;;;;;2.92;2.03;;;;;;;19.62;79.83;101733.91;20706186;28;20056;-73
2022/09/05 09:29:09;;;;;;;3.00;2.38;;;;;;;19.23;80.17;101654.22;20698942;28;20054;-73
2022/09/05 09:39:36;;;;;;;2.33;2.13;;;;;;;19.65;80.26;101720.13;20675003;28;20742;-73
2022/09/05 09:50:21;;;;;;;3.10;2.35;;;;;;;19.65;80.41;101703.94;20710557;28;20057;-73
2022/09/05 10:00:23;;;;;;;3.33;2.22;;;;;;;19.67;80.25;101712.75;20675251;28;20048;-73
2022/09/05 10:10:40;;;;;;;2.05;1.85;;;;;;;19.63;80.20;101695.09;20703451;28;20080;-73
2022/09/05 10:21:13;;;;;;;3.28;2.15;;;;;;;19.71;80.24;101695.31;20747485;28;20111;-73
2022/09/05 10:31:20;;;;;;;2.17;1.70;;;;;;;19.71;80.08;101689.91;20795360;28;20095;-73
2022/09/05 10:41:57;;;;;;;2.58;2.30;;;;;;;19.73;79.98;101687.09;20776916;28;21172;-73
2022/09/05 10:52:11;;;;;;;1.77;1.67;;;;;;;19.75;80.01;101675.16;20784748;28;20044;-73
2022/09/05 11:14:37;;;;;;;2.20;2.00;;;;;;;19.78;80.07;101674.03;20676025;28;20047;-74
2022/09/05 11:24:42;;;;;;;2.45;2.20;;;;;;;19.77;80.26;101667.75;20661842;28;20088;-74
2022/09/05 11:35:24;;;;;;;2.23;2.03;;;;;;;19.79;80.58;101654.97;20681231;28;20061;-74
2022/09/05 11:45:56;;;;;;;2.30;2.08;;;;;;;19.69;80.49;101627.03;20692136;28;20057;-74
2022/09/05 11:56:16;;;;;;;2.17;1.80;;;;;;;19.79;80.62;101646.88;20689079;28;20049;-73
2022/09/05 12:06:41;;;;;;;3.25;2.05;;;;;;;19.80;80.32;101645.03;20701733;28;20074;-73
2022/09/05 12:17:27;;;;;;;2.83;2.00;;;;;;;19.80;80.21;101637.78;20703787;28;20495;-73
2022/09/05 12:27:36;;;;;;;2.15;1.95;;;;;;;19.79;80.08;101627.97;20698579;28;20041;-73
2022/09/05 12:37:55;;;;;;;1.65;1.55;;;;;;;19.79;80.02;101617.16;20661995;28;20529;-74
2022/09/05 12:48:35;;;;;;;5.07;1.92;;;;;;;19.77;80.07;101616.44;20658732;28;20058;-74
2022/09/05 12:58:42;;;;;;;2.53;1.80;;;;;;;19.80;79.89;101605.38;20688751;28;20042;-74
2022/09/05 13:09:09;;;;;;;4.33;1.87;;;;;;;19.78;79.86;101614.59;20685685;28;20504;-73
2022/09/05 13:19:29;;;;;;;2.95;2.10;;;;;;;19.76;80.04;101612.03;20664561;28;20050;-73
2022/09/05 13:29:53;;;;;;;2.85;1.95;;;;;;;19.78;81.80;101603.78;20732871;28;20524;-72
2022/09/05 13:40:18;;;;;;;2.83;1.65;;;;;;;19.81;83.39;101598.13;20682787;28;20060;-72
2022/09/05 13:50:25;;;;;;;6.78;2.58;;;;;;;19.81;86.46;101574.66;20664138;28;20065;-73
2022/09/05 14:00:35;;;;;;;9.43;3.20;;;;;;;19.90;93.74;101580.28;20753904;28;20060;-73
2022/09/05 14:11:06;;;;;;;4.45;2.40;;;;;;;19.91;91.70;101572.06;20698404;28;20403;-72
2022/09/05 14:21:15;;;;;;;4.13;2.10;;;;;;;19.77;88.65;101539.94;20669978;28;20049;-73
2022/09/05 14:31:20;;;;;;;4.53;2.00;;;;;;;19.92;87.36;101557.53;20778156;28;20057;-73
2022/09/05 14:42:31;;;;;;;2.73;2.10;;;;;;;19.88;86.54;101555.19;20783003;28;20077;-73
2022/09/05 14:52:34;;;;;;;2.35;2.10;;;;;;;19.81;85.90;101538.69;20704368;28;20050;-73
2022/09/05 15:02:46;;;;;;;3.70;2.15;;;;;;;19.80;85.62;101537.81;20711688;28;20061;-73
2022/09/05 15:13:12;;;;;;;2.63;1.67;;;;;;;19.79;85.11;101530.69;20680810;28;20057;-73
2022/09/05 15:23:22;;;;;;;2.75;1.85;;;;;;;19.76;83.64;101530.13;20687398;28;20182;-73
2022/09/05 15:33:29;;;;;;;2.53;1.70;;;;;;;19.71;83.38;101517.00;20762292;28;20064;-72
2022/09/05 15:43:30;;;;;;;2.10;1.90;;;;;;;19.17;83.04;101444.22;20663606;28;20053;-73
2022/09/05 15:53:35;;;;;;;4.85;1.70;;;;;;;19.66;83.05;101519.25;20735620;28;20135;-73
2022/09/05 16:03:38;;;;;;;;;;;;;;;19.63;83.28;101509.56;20643594;28;20057;-73
2022/09/05 16:14:12;;;;;;;1.95;1.75;;;;;;;19.61;83.20;101510.69;20708318;28;20522;-72
2022/09/05 16:24:19;;;;;;;2.17;1.75;;;;;;;19.58;83.74;101509.09;20719303;28;20140;-73
2022/09/05 16:35:00;;;;;;;4.15;1.60;;;;;;;19.43;83.99;101476.19;20777511;28;20436;-73
2022/09/05 16:45:09;;;;;;;1.70;1.60;;;;;;;19.54;83.70;101486.06;20719376;28;20402;-74
2022/09/05 16:55:16;;;;;;;1.70;1.58;;;;;;;19.49;83.79;101489.19;20715168;28;20523;-73
2022/09/05 17:05:46;;;;;;;2.00;1.80;;;;;;;19.50;84.25;101484.63;20672720;28;20057;-74
2022/09/05 17:15:48;;;;;;;1.60;1.50;;;;;;;19.34;84.10;101452.69;20683382;28;20045;-74
2022/09/05 17:25:59;;;;;;;2.35;1.80;;;;;;;19.32;84.18;101449.25;20662517;28;20540;-74
2022/09/05 17:36:26;;;;;;;1.70;1.58;;;;;;;19.38;84.32;101446.03;20672520;28;20100;-74
2022/09/05 17:46:46;;;;;;;1.60;1.50;;;;;;;19.45;84.41;101468.84;20701476;28;20049;-74
2022/09/05 17:56:48;;;;;;;1.77;1.48;;;;;;;19.44;84.43;101452.75;20787948;28;20508;-73
2022/09/05 18:06:50;;;;;;;1.60;1.50;;;;;;;19.42;84.76;101452.88;20815590;28;20049;-73
2022/09/05 18:17:01;;;;;;;1.63;1.52;;;;;;;19.41;84.71;101467.34;20700297;28;20406;-73
2022/09/05 18:27:27;;;;;;;1.42;1.30;;;;;;;19.40;84.69;101477.31;20685838;28;20654;-74
2022/09/05 18:38:09;;;;;;;1.52;1.40;;;;;;;19.40;84.88;101473.75;20684545;28;20056;-73
2022/09/05 18:48:11;;;;;;;1.88;1.30;;;;;;;19.24;85.42;101466.97;20753390;28;20567;-73
2022/09/05 18:58:30;;;;;;;2.58;1.50;;;;;;;19.40;86.00;101477.31;20711290;28;20068;-73
2022/09/05 19:08:45;;;;;;;3.50;1.75;;;;;;;19.42;86.32;101479.88;20706155;28;20104;-73
2022/09/05 19:19:11;;;;;;;2.53;1.20;;;;;;;19.44;86.26;101482.44;20692779;28;20390;-73
2022/09/05 19:29:19;;;;;;;2.25;1.50;;;;;;;19.38;86.32;101475.72;20800805;28;20107;-73
2022/09/05 19:39:44;;;;;;;1.88;1.70;;;;;;;19.39;86.27;101474.75;20791680;28;20128;-73
2022/09/05 19:50:09;;;;;;;1.40;1.30;;;;;;;19.41;86.43;101479.03;20776898;28;20085;-73
2022/09/05 20:00:11;;;;;;;3.35;1.70;;;;;;;19.41;86.44;101476.31;20771179;28;20045;-73
2022/09/05 20:10:31;;;;;;;1.83;1.70;;;;;;;19.41;86.67;101478.16;20792346;28;20041;-73
2022/09/05 20:20:33;;;;;;;1.90;1.67;;;;;;;19.41;86.52;101481.72;20727849;28;20049;-73
2022/09/05 20:30:34;;;;;;;1.58;1.48;;;;;;;19.41;86.55;101483.56;20709205;28;20060;-74
2022/09/05 20:40:36;;;;;;;1.88;1.60;;;;;;;19.40;86.62;101484.53;20724579;28;20061;-73
2022/09/05 20:50:58;;;;;;;2.15;1.90;;;;;;;19.40;86.81;101487.25;20726086;28;20049;-73
2022/09/05 21:01:21;;;;;;;1.65;1.55;;;;;;;19.40;86.48;101487.25;20707736;28;20052;-74
2022/09/05 21:11:31;;;;;;;2.10;1.77;;;;;;;19.39;86.92;101485.53;20721863;28;20046;-73
2022/09/05 21:21:33;;;;;;;1.98;1.52;;;;;;;19.35;86.93;101473.28;20721894;28;20050;-73
2022/09/05 21:31:47;;;;;;;5.28;2.05;;;;;;;19.39;86.89;101469.34;20704978;28;20049;-73
2022/09/05 21:41:55;;;;;;;2.22;1.85;;;;;;;19.38;86.78;101467.63;20720198;28;20050;-74
2022/09/05 21:52:19;;;;;;;2.72;2.00;;;;;;;19.22;86.85;101455.47;20719283;28;20046;-74
2022/09/05 22:02:22;;;;;;;2.43;1.60;;;;;;;19.14;86.85;101430.97;20722249;28;20052;-73
2022/09/05 22:12:34;;;;;;;2.35;2.08;;;;;;;19.37;86.87;101457.81;20719056;28;20073;-73
2022/09/05 22:22:36;;;;;;;2.22;2.00;;;;;;;19.35;86.84;101432.78;20717455;28;20116;-73
2022/09/05 22:32:38;;;;;;;2.53;1.98;;;;;;;19.27;86.59;101412.72;20700549;28;20056;-73
2022/09/05 22:42:40;;;;;;;2.60;2.40;;;;;;;19.36;86.53;101418.31;20717598;28;20136;-74
2022/09/05 22:52:41;;;;;;;3.03;2.35;;;;;;;19.35;86.53;101403.97;20713956;28;20053;-74
2022/09/05 23:02:43;;;;;;;2.90;2.13;;;;;;;19.35;86.45;101400.41;20716548;28;20045;-73
2022/09/05 23:12:50;;;;;;;2.63;2.13;;;;;;;19.25;86.23;101374.22;20715054;28;20069;-73
2022/09/05 23:22:52;;;;;;;2.40;2.20;;;;;;;19.33;86.25;101365.44;20714672;28;20100;-74
2022/09/05 23:32:53;;;;;;;2.53;2.33;;;;;;;19.34;86.24;101350.97;20713431;28;20080;-73
2022/09/05 23:42:57;;;;;;;2.10;1.90;;;;;;;19.34;86.26;101355.50;20712026;28;20406;-73
2022/09/05 23:53:03;;;;;;;2.40;2.13;;;;;;;19.34;86.10;101347.41;20710712;28;20046;-73
